sensor_id;sensor_type;location;lat;lon;timestamp;temperature;humidity
71382;DHT22;60099;45.660;13.804;2022-07-29T00:00:01;26.70;49.00
71382;DHT22;60099;45.660;13.804;2022-07-29T00:02:27;26.60;48.90
71382;DHT22;60099;45.660;13.804;2022-07-29T00:04:53;26.70;48.90
71382;DHT22;60099;45.660;13.804;2022-07-29T00:07:19;26.60;49.00
71382;DHT22;60099;45.660;13.804;2022-07-29T00:09:45;26.60;49.00
71382;DHT22;60099;45.660;13.804;2022-07-29T00:12:11;26.60;49.10
71382;DHT22;60099;45.660;13.804;2022-07-29T00:14:36;26.60;49.30
71382;DHT22;60099;45.660;13.804;2022-07-29T00:17:02;26.50;49.40
71382;DHT22;60099;45.660;13.804;2022-07-29T00:19:28;26.50;49.30
71382;DHT22;60099;45.660;13.804;2022-07-29T00:21:54;26.50;49.40
71382;DHT22;60099;45.660;13.804;2022-07-29T00:24:20;26.50;49.30
71382;DHT22;60099;45.660;13.804;2022-07-29T00:26:45;26.40;49.40
71382;DHT22;60099;45.660;13.804;2022-07-29T00:29:11;26.40;49.60
71382;DHT22;60099;45.660;13.804;2022-07-29T00:31:37;26.40;49.50
71382;DHT22;60099;45.660;13.804;2022-07-29T00:34:03;26.40;49.50
71382;DHT22;60099;45.660;13.804;2022-07-29T00:36:29;26.40;49.30
71382;DHT22;60099;45.660;13.804;2022-07-29T00:38:54;26.40;49.30
71382;DHT22;60099;45.660;13.804;2022-07-29T00:41:20;26.40;49.30
71382;DHT22;60099;45.660;13.804;2022-07-29T00:43:46;26.50;49.30
71382;DHT22;60099;45.660;13.804;2022-07-29T00:46:12;26.50;49.20
71382;DHT22;60099;45.660;13.804;2022-07-29T00:48:38;26.50;49.20
71382;DHT22;60099;45.660;13.804;2022-07-29T00:51:05;26.50;49.00
71382;DHT22;60099;45.660;13.804;2022-07-29T00:53:32;26.50;49.00
71382;DHT22;60099;45.660;13.804;2022-07-29T00:55:59;26.50;48.90
71382;DHT22;60099;45.660;13.804;2022-07-29T00:58:26;26.50;48.90
71382;DHT22;60099;45.660;13.804;2022-07-29T01:00:52;26.50;48.90
71382;DHT22;60099;45.660;13.804;2022-07-29T01:03:18;26.50;48.70
71382;DHT22;60099;45.660;13.804;2022-07-29T01:05:45;26.50;48.80
71382;DHT22;60099;45.660;13.804;2022-07-29T01:08:13;26.50;48.70
71382;DHT22;60099;45.660;13.804;2022-07-29T01:10:40;26.50;48.60
71382;DHT22;60099;45.660;13.804;2022-07-29T01:13:08;26.50;48.60
71382;DHT22;60099;45.660;13.804;2022-07-29T01:15:42;26.40;48.60
71382;DHT22;60099;45.660;13.804;2022-07-29T01:18:20;26.40;48.70
71382;DHT22;60099;45.660;13.804;2022-07-29T01:29:41;26.40;48.70
71382;DHT22;60099;45.660;13.804;2022-07-29T01:32:12;26.40;48.80
71382;DHT22;60099;45.660;13.804;2022-07-29T01:37:50;26.30;48.80
71382;DHT22;60099;45.660;13.804;2022-07-29T01:42:54;26.20;48.80
71382;DHT22;60099;45.660;13.804;2022-07-29T01:45:56;26.20;48.90
71382;DHT22;60099;45.660;13.804;2022-07-29T01:48:27;26.20;49.00
71382;DHT22;60099;45.660;13.804;2022-07-29T01:51:11;26.20;49.00
71382;DHT22;60099;45.660;13.804;2022-07-29T01:53:43;26.20;49.00
71382;DHT22;60099;45.660;13.804;2022-07-29T01:56:12;26.20;48.90
71382;DHT22;60099;45.660;13.804;2022-07-29T01:58:40;26.20;48.90
71382;DHT22;60099;45.660;13.804;2022-07-29T02:01:08;26.20;48.90
71382;DHT22;60099;45.660;13.804;2022-07-29T02:03:36;26.20;48.90
71382;DHT22;60099;45.660;13.804;2022-07-29T02:06:04;26.20;48.80
71382;DHT22;60099;45.660;13.804;2022-07-29T02:08:32;26.20;48.90
71382;DHT22;60099;45.660;13.804;2022-07-29T02:11:00;26.20;48.90
71382;DHT22;60099;45.660;13.804;2022-07-29T02:13:27;26.20;48.70
71382;DHT22;60099;45.660;13.804;2022-07-29T02:15:55;26.20;48.60
71382;DHT22;60099;45.660;13.804;2022-07-29T02:18:23;26.10;48.60
71382;DHT22;60099;45.660;13.804;2022-07-29T02:20:53;26.20;48.60
71382;DHT22;60099;45.660;13.804;2022-07-29T02:23:22;26.10;48.50
71382;DHT22;60099;45.660;13.804;2022-07-29T02:25:49;26.10;48.50
71382;DHT22;60099;45.660;13.804;2022-07-29T02:28:17;26.10;48.40
71382;DHT22;60099;45.660;13.804;2022-07-29T02:30:45;26.20;48.40
71382;DHT22;60099;45.660;13.804;2022-07-29T02:33:13;26.10;48.20
71382;DHT22;60099;45.660;13.804;2022-07-29T02:35:41;26.10;48.30
71382;DHT22;60099;45.660;13.804;2022-07-29T02:38:10;26.10;48.30
71382;DHT22;60099;45.660;13.804;2022-07-29T02:40:56;26.10;48.90
71382;DHT22;60099;45.660;13.804;2022-07-29T02:43:25;26.10;48.80
71382;DHT22;60099;45.660;13.804;2022-07-29T02:45:53;26.10;48.10
71382;DHT22;60099;45.660;13.804;2022-07-29T02:48:25;26.10;48.00
71382;DHT22;60099;45.660;13.804;2022-07-29T02:51:01;26.20;48.00
71382;DHT22;60099;45.660;13.804;2022-07-29T02:53:33;26.10;48.00
71382;DHT22;60099;45.660;13.804;2022-07-29T02:56:04;26.10;47.90
71382;DHT22;60099;45.660;13.804;2022-07-29T02:58:34;26.10;48.00
71382;DHT22;60099;45.660;13.804;2022-07-29T03:01:04;26.10;47.90
71382;DHT22;60099;45.660;13.804;2022-07-29T03:03:36;26.10;47.90
71382;DHT22;60099;45.660;13.804;2022-07-29T03:06:03;26.10;47.90
71382;DHT22;60099;45.660;13.804;2022-07-29T03:08:30;26.10;47.90
71382;DHT22;60099;45.660;13.804;2022-07-29T03:10:57;26.10;47.80
71382;DHT22;60099;45.660;13.804;2022-07-29T03:13:25;26.10;47.80
71382;DHT22;60099;45.660;13.804;2022-07-29T03:15:51;26.10;47.80
71382;DHT22;60099;45.660;13.804;2022-07-29T03:18:17;26.10;47.80
71382;DHT22;60099;45.660;13.804;2022-07-29T03:20:43;26.00;48.00
71382;DHT22;60099;45.660;13.804;2022-07-29T03:23:09;26.00;48.00
71382;DHT22;60099;45.660;13.804;2022-07-29T03:25:35;25.90;48.00
71382;DHT22;60099;45.660;13.804;2022-07-29T03:28:01;25.90;48.10
71382;DHT22;60099;45.660;13.804;2022-07-29T03:30:26;25.80;48.10
71382;DHT22;60099;45.660;13.804;2022-07-29T03:32:53;25.80;48.20
71382;DHT22;60099;45.660;13.804;2022-07-29T03:35:20;25.80;48.10
71382;DHT22;60099;45.660;13.804;2022-07-29T03:37:46;25.90;48.00
71382;DHT22;60099;45.660;13.804;2022-07-29T03:40:16;25.90;47.90
71382;DHT22;60099;45.660;13.804;2022-07-29T03:42:43;25.90;48.00
71382;DHT22;60099;45.660;13.804;2022-07-29T03:45:13;25.90;47.80
71382;DHT22;60099;45.660;13.804;2022-07-29T03:47:47;25.90;47.90
71382;DHT22;60099;45.660;13.804;2022-07-29T03:50:14;25.90;47.90
71382;DHT22;60099;45.660;13.804;2022-07-29T03:52:41;25.90;47.90
71382;DHT22;60099;45.660;13.804;2022-07-29T03:55:08;26.00;47.80
71382;DHT22;60099;45.660;13.804;2022-07-29T03:57:34;26.00;47.70
71382;DHT22;60099;45.660;13.804;2022-07-29T04:00:02;25.90;47.70
71382;DHT22;60099;45.660;13.804;2022-07-29T04:02:29;25.90;47.80
71382;DHT22;60099;45.660;13.804;2022-07-29T04:04:56;25.90;48.50
71382;DHT22;60099;45.660;13.804;2022-07-29T04:07:21;25.90;47.90
71382;DHT22;60099;45.660;13.804;2022-07-29T04:09:47;25.80;48.00
71382;DHT22;60099;45.660;13.804;2022-07-29T04:12:13;25.80;47.90
71382;DHT22;60099;45.660;13.804;2022-07-29T04:14:38;25.70;47.90
71382;DHT22;60099;45.660;13.804;2022-07-29T04:17:04;25.80;48.00
71382;DHT22;60099;45.660;13.804;2022-07-29T04:19:31;25.80;48.00
71382;DHT22;60099;45.660;13.804;2022-07-29T04:21:58;25.80;48.00
71382;DHT22;60099;45.660;13.804;2022-07-29T04:24:25;25.80;48.00
71382;DHT22;60099;45.660;13.804;2022-07-29T04:26:50;25.80;48.10
71382;DHT22;60099;45.660;13.804;2022-07-29T04:29:16;25.90;48.20
71382;DHT22;60099;45.660;13.804;2022-07-29T04:31:42;25.90;48.10
71382;DHT22;60099;45.660;13.804;2022-07-29T04:34:09;25.90;48.30
71382;DHT22;60099;45.660;13.804;2022-07-29T04:36:35;25.90;48.30
71382;DHT22;60099;45.660;13.804;2022-07-29T04:39:01;25.90;48.10
71382;DHT22;60099;45.660;13.804;2022-07-29T04:41:27;25.90;48.00
71382;DHT22;60099;45.660;13.804;2022-07-29T04:43:53;26.10;48.00
71382;DHT22;60099;45.660;13.804;2022-07-29T04:46:19;26.10;47.60
71382;DHT22;60099;45.660;13.804;2022-07-29T04:48:45;26.10;47.70
71382;DHT22;60099;45.660;13.804;2022-07-29T04:51:12;26.10;47.40
71382;DHT22;60099;45.660;13.804;2022-07-29T04:53:37;26.20;47.30
71382;DHT22;60099;45.660;13.804;2022-07-29T04:56:03;26.20;47.30
71382;DHT22;60099;45.660;13.804;2022-07-29T04:58:29;26.20;47.60
71382;DHT22;60099;45.660;13.804;2022-07-29T05:00:55;26.20;47.50
71382;DHT22;60099;45.660;13.804;2022-07-29T05:03:21;26.20;47.30
71382;DHT22;60099;45.660;13.804;2022-07-29T05:05:46;26.20;47.00
71382;DHT22;60099;45.660;13.804;2022-07-29T05:08:12;26.20;46.70
71382;DHT22;60099;45.660;13.804;2022-07-29T05:10:38;26.30;46.50
71382;DHT22;60099;45.660;13.804;2022-07-29T05:13:05;26.30;46.60
71382;DHT22;60099;45.660;13.804;2022-07-29T05:15:32;26.40;46.50
71382;DHT22;60099;45.660;13.804;2022-07-29T05:17:59;26.40;46.60
71382;DHT22;60099;45.660;13.804;2022-07-29T05:20:24;26.40;46.10
71382;DHT22;60099;45.660;13.804;2022-07-29T05:22:54;26.40;46.40
71382;DHT22;60099;45.660;13.804;2022-07-29T05:25:20;26.40;46.20
71382;DHT22;60099;45.660;13.804;2022-07-29T05:27:46;26.50;46.40
71382;DHT22;60099;45.660;13.804;2022-07-29T05:30:13;26.50;47.00
71382;DHT22;60099;45.660;13.804;2022-07-29T05:32:38;26.50;46.60
71382;DHT22;60099;45.660;13.804;2022-07-29T05:35:05;26.50;46.30
71382;DHT22;60099;45.660;13.804;2022-07-29T05:37:31;26.50;45.90
71382;DHT22;60099;45.660;13.804;2022-07-29T05:39:57;26.50;46.00
71382;DHT22;60099;45.660;13.804;2022-07-29T05:42:23;26.60;46.10
71382;DHT22;60099;45.660;13.804;2022-07-29T05:44:49;26.60;45.90
71382;DHT22;60099;45.660;13.804;2022-07-29T05:47:15;26.70;46.00
71382;DHT22;60099;45.660;13.804;2022-07-29T05:49:41;26.70;46.00
71382;DHT22;60099;45.660;13.804;2022-07-29T05:52:07;26.70;45.70
71382;DHT22;60099;45.660;13.804;2022-07-29T05:54:33;26.80;46.10
71382;DHT22;60099;45.660;13.804;2022-07-29T05:56:59;26.80;45.80
71382;DHT22;60099;45.660;13.804;2022-07-29T05:59:25;26.80;46.00
71382;DHT22;60099;45.660;13.804;2022-07-29T06:01:50;26.80;45.80
71382;DHT22;60099;45.660;13.804;2022-07-29T06:04:16;26.90;45.70
71382;DHT22;60099;45.660;13.804;2022-07-29T06:06:42;27.00;45.60
71382;DHT22;60099;45.660;13.804;2022-07-29T06:09:08;27.00;45.50
71382;DHT22;60099;45.660;13.804;2022-07-29T06:11:33;27.00;45.50
71382;DHT22;60099;45.660;13.804;2022-07-29T06:13:59;27.00;45.40
71382;DHT22;60099;45.660;13.804;2022-07-29T06:16:25;27.00;45.40
71382;DHT22;60099;45.660;13.804;2022-07-29T06:18:50;27.10;45.20
71382;DHT22;60099;45.660;13.804;2022-07-29T06:21:17;27.10;45.30
71382;DHT22;60099;45.660;13.804;2022-07-29T06:23:44;27.10;45.30
71382;DHT22;60099;45.660;13.804;2022-07-29T06:26:10;27.20;45.20
71382;DHT22;60099;45.660;13.804;2022-07-29T06:28:36;27.20;45.00
71382;DHT22;60099;45.660;13.804;2022-07-29T06:31:02;27.30;45.00
71382;DHT22;60099;45.660;13.804;2022-07-29T06:33:28;27.30;44.70
71382;DHT22;60099;45.660;13.804;2022-07-29T06:35:54;27.40;44.60
71382;DHT22;60099;45.660;13.804;2022-07-29T06:38:20;27.50;44.90
71382;DHT22;60099;45.660;13.804;2022-07-29T06:40:46;27.50;44.90
71382;DHT22;60099;45.660;13.804;2022-07-29T06:43:32;27.60;44.90
71382;DHT22;60099;45.660;13.804;2022-07-29T06:46:04;27.70;45.00
71382;DHT22;60099;45.660;13.804;2022-07-29T06:48:30;27.70;45.00
71382;DHT22;60099;45.660;13.804;2022-07-29T06:50:57;27.80;44.00
71382;DHT22;60099;45.660;13.804;2022-07-29T06:53:23;27.90;46.40
71382;DHT22;60099;45.660;13.804;2022-07-29T06:55:49;27.90;46.80
71382;DHT22;60099;45.660;13.804;2022-07-29T06:58:15;27.90;47.00
71382;DHT22;60099;45.660;13.804;2022-07-29T07:00:43;27.80;47.50
71382;DHT22;60099;45.660;13.804;2022-07-29T07:03:10;27.80;47.90
71382;DHT22;60099;45.660;13.804;2022-07-29T07:05:36;27.80;48.50
71382;DHT22;60099;45.660;13.804;2022-07-29T07:08:02;27.90;48.60
71382;DHT22;60099;45.660;13.804;2022-07-29T07:10:28;27.90;48.10
71382;DHT22;60099;45.660;13.804;2022-07-29T07:12:54;27.90;48.10
71382;DHT22;60099;45.660;13.804;2022-07-29T07:15:20;27.90;48.20
71382;DHT22;60099;45.660;13.804;2022-07-29T07:17:50;27.90;47.70
71382;DHT22;60099;45.660;13.804;2022-07-29T07:20:17;27.90;47.50
71382;DHT22;60099;45.660;13.804;2022-07-29T07:22:43;27.90;46.90
71382;DHT22;60099;45.660;13.804;2022-07-29T07:25:09;27.80;47.80
71382;DHT22;60099;45.660;13.804;2022-07-29T07:27:36;27.80;46.80
71382;DHT22;60099;45.660;13.804;2022-07-29T07:30:04;27.90;47.00
71382;DHT22;60099;45.660;13.804;2022-07-29T07:32:32;28.00;47.20
71382;DHT22;60099;45.660;13.804;2022-07-29T07:34:57;28.00;46.50
71382;DHT22;60099;45.660;13.804;2022-07-29T07:37:24;28.00;46.70
71382;DHT22;60099;45.660;13.804;2022-07-29T07:39:51;28.10;46.70
71382;DHT22;60099;45.660;13.804;2022-07-29T07:42:17;28.20;46.30
71382;DHT22;60099;45.660;13.804;2022-07-29T07:44:43;28.10;45.50
71382;DHT22;60099;45.660;13.804;2022-07-29T07:47:09;28.20;45.50
71382;DHT22;60099;45.660;13.804;2022-07-29T07:49:34;28.20;45.50
71382;DHT22;60099;45.660;13.804;2022-07-29T07:52:00;28.30;44.80
71382;DHT22;60099;45.660;13.804;2022-07-29T07:54:26;28.30;45.10
71382;DHT22;60099;45.660;13.804;2022-07-29T07:56:52;28.40;45.00
71382;DHT22;60099;45.660;13.804;2022-07-29T07:59:17;28.40;45.00
71382;DHT22;60099;45.660;13.804;2022-07-29T08:01:43;28.50;46.20
71382;DHT22;60099;45.660;13.804;2022-07-29T08:04:09;28.60;46.10
71382;DHT22;60099;45.660;13.804;2022-07-29T08:06:35;28.60;46.60
71382;DHT22;60099;45.660;13.804;2022-07-29T08:09:03;28.60;47.20
71382;DHT22;60099;45.660;13.804;2022-07-29T08:11:29;28.70;46.50
71382;DHT22;60099;45.660;13.804;2022-07-29T08:13:55;28.70;46.60
71382;DHT22;60099;45.660;13.804;2022-07-29T08:16:21;28.70;47.10
71382;DHT22;60099;45.660;13.804;2022-07-29T08:18:47;28.70;47.50
71382;DHT22;60099;45.660;13.804;2022-07-29T08:21:14;28.70;47.20
71382;DHT22;60099;45.660;13.804;2022-07-29T08:23:41;28.80;47.40
71382;DHT22;60099;45.660;13.804;2022-07-29T08:26:19;28.80;47.10
71382;DHT22;60099;45.660;13.804;2022-07-29T08:28:48;28.80;47.40
71382;DHT22;60099;45.660;13.804;2022-07-29T08:31:16;28.80;47.60
71382;DHT22;60099;45.660;13.804;2022-07-29T08:33:42;28.90;46.70
71382;DHT22;60099;45.660;13.804;2022-07-29T08:36:08;28.90;45.70
71382;DHT22;60099;45.660;13.804;2022-07-29T08:38:35;28.90;45.70
71382;DHT22;60099;45.660;13.804;2022-07-29T08:41:00;28.90;45.40
71382;DHT22;60099;45.660;13.804;2022-07-29T08:43:28;29.00;45.00
71382;DHT22;60099;45.660;13.804;2022-07-29T08:45:54;29.00;45.40
71382;DHT22;60099;45.660;13.804;2022-07-29T08:48:22;29.00;45.80
71382;DHT22;60099;45.660;13.804;2022-07-29T08:50:50;29.00;45.10
71382;DHT22;60099;45.660;13.804;2022-07-29T08:53:18;29.10;44.70
71382;DHT22;60099;45.660;13.804;2022-07-29T08:55:48;29.20;45.30
71382;DHT22;60099;45.660;13.804;2022-07-29T08:58:15;29.20;45.60
71382;DHT22;60099;45.660;13.804;2022-07-29T09:00:49;29.30;45.40
71382;DHT22;60099;45.660;13.804;2022-07-29T09:03:19;29.30;45.20
71382;DHT22;60099;45.660;13.804;2022-07-29T09:05:46;29.30;44.90
71382;DHT22;60099;45.660;13.804;2022-07-29T09:08:13;29.40;45.10
71382;DHT22;60099;45.660;13.804;2022-07-29T09:10:39;29.40;45.20
71382;DHT22;60099;45.660;13.804;2022-07-29T09:13:05;29.40;45.60
71382;DHT22;60099;45.660;13.804;2022-07-29T09:15:31;29.40;44.90
71382;DHT22;60099;45.660;13.804;2022-07-29T09:17:57;29.30;44.90
71382;DHT22;60099;45.660;13.804;2022-07-29T09:20:25;29.30;44.20
71382;DHT22;60099;45.660;13.804;2022-07-29T09:22:52;29.30;44.90
71382;DHT22;60099;45.660;13.804;2022-07-29T09:25:38;29.40;44.30
71382;DHT22;60099;45.660;13.804;2022-07-29T09:28:13;29.40;43.30
71382;DHT22;60099;45.660;13.804;2022-07-29T09:30:58;29.40;44.50
71382;DHT22;60099;45.660;13.804;2022-07-29T09:33:30;29.50;43.50
71382;DHT22;60099;45.660;13.804;2022-07-29T09:36:04;29.60;41.40
71382;DHT22;60099;45.660;13.804;2022-07-29T09:38:31;29.60;40.80
71382;DHT22;60099;45.660;13.804;2022-07-29T09:40:58;29.60;41.60
71382;DHT22;60099;45.660;13.804;2022-07-29T09:43:24;29.80;42.20
71382;DHT22;60099;45.660;13.804;2022-07-29T09:45:50;29.70;41.20
71382;DHT22;60099;45.660;13.804;2022-07-29T09:48:20;29.80;40.70
71382;DHT22;60099;45.660;13.804;2022-07-29T09:50:47;29.80;41.30
71382;DHT22;60099;45.660;13.804;2022-07-29T09:53:38;29.70;40.40
71382;DHT22;60099;45.660;13.804;2022-07-29T09:56:05;29.80;40.60
71382;DHT22;60099;45.660;13.804;2022-07-29T09:58:31;29.90;41.10
71382;DHT22;60099;45.660;13.804;2022-07-29T10:00:59;29.90;41.90
71382;DHT22;60099;45.660;13.804;2022-07-29T10:03:25;29.90;42.60
71382;DHT22;60099;45.660;13.804;2022-07-29T10:06:08;30.00;42.40
71382;DHT22;60099;45.660;13.804;2022-07-29T10:08:34;30.00;41.30
71382;DHT22;60099;45.660;13.804;2022-07-29T10:11:19;30.00;41.50
71382;DHT22;60099;45.660;13.804;2022-07-29T10:13:46;29.90;41.30
71382;DHT22;60099;45.660;13.804;2022-07-29T10:16:13;29.90;40.70
71382;DHT22;60099;45.660;13.804;2022-07-29T10:18:40;29.90;40.60
71382;DHT22;60099;45.660;13.804;2022-07-29T10:21:06;29.90;41.00
71382;DHT22;60099;45.660;13.804;2022-07-29T10:23:34;30.00;41.60
71382;DHT22;60099;45.660;13.804;2022-07-29T10:26:00;30.10;41.60
71382;DHT22;60099;45.660;13.804;2022-07-29T10:28:27;30.20;40.50
71382;DHT22;60099;45.660;13.804;2022-07-29T10:31:00;30.20;40.60
71382;DHT22;60099;45.660;13.804;2022-07-29T10:33:51;30.20;41.10
71382;DHT22;60099;45.660;13.804;2022-07-29T10:36:54;30.20;40.80
71382;DHT22;60099;45.660;13.804;2022-07-29T10:42:52;30.30;40.40
71382;DHT22;60099;45.660;13.804;2022-07-29T10:45:18;30.30;38.80
71382;DHT22;60099;45.660;13.804;2022-07-29T10:47:45;30.30;38.80
71382;DHT22;60099;45.660;13.804;2022-07-29T10:50:10;30.10;39.40
71382;DHT22;60099;45.660;13.804;2022-07-29T10:52:53;30.10;39.00
71382;DHT22;60099;45.660;13.804;2022-07-29T10:55:38;30.10;38.90
71382;DHT22;60099;45.660;13.804;2022-07-29T10:58:21;30.20;39.80
71382;DHT22;60099;45.660;13.804;2022-07-29T11:00:49;30.30;39.00
71382;DHT22;60099;45.660;13.804;2022-07-29T11:06:07;30.30;39.30
71382;DHT22;60099;45.660;13.804;2022-07-29T11:08:33;30.30;39.50
71382;DHT22;60099;45.660;13.804;2022-07-29T11:16:09;30.50;38.40
71382;DHT22;60099;45.660;13.804;2022-07-29T11:18:35;30.40;40.00
71382;DHT22;60099;45.660;13.804;2022-07-29T11:21:01;30.40;40.20
71382;DHT22;60099;45.660;13.804;2022-07-29T11:29:16;30.70;39.40
71382;DHT22;60099;45.660;13.804;2022-07-29T11:31:45;30.80;39.30
71382;DHT22;60099;45.660;13.804;2022-07-29T11:34:24;30.80;39.20
71382;DHT22;60099;45.660;13.804;2022-07-29T11:47:23;30.80;38.10
71382;DHT22;60099;45.660;13.804;2022-07-29T11:49:50;30.80;37.80
71382;DHT22;60099;45.660;13.804;2022-07-29T11:52:17;30.80;37.70
71382;DHT22;60099;45.660;13.804;2022-07-29T11:54:43;30.90;39.40
71382;DHT22;60099;45.660;13.804;2022-07-29T11:57:09;30.90;37.60
71382;DHT22;60099;45.660;13.804;2022-07-29T11:59:40;30.90;37.30
71382;DHT22;60099;45.660;13.804;2022-07-29T12:02:07;30.90;39.30
71382;DHT22;60099;45.660;13.804;2022-07-29T12:04:34;30.90;37.70
71382;DHT22;60099;45.660;13.804;2022-07-29T12:07:10;30.90;38.90
71382;DHT22;60099;45.660;13.804;2022-07-29T12:09:36;31.00;37.90
71382;DHT22;60099;45.660;13.804;2022-07-29T12:12:02;31.00;38.90
71382;DHT22;60099;45.660;13.804;2022-07-29T12:14:32;31.00;37.70
71382;DHT22;60099;45.660;13.804;2022-07-29T12:16:59;31.00;37.60
71382;DHT22;60099;45.660;13.804;2022-07-29T12:19:28;30.90;39.30
71382;DHT22;60099;45.660;13.804;2022-07-29T12:21:55;31.00;40.10
71382;DHT22;60099;45.660;13.804;2022-07-29T12:24:23;31.00;38.00
71382;DHT22;60099;45.660;13.804;2022-07-29T12:26:55;30.90;38.40
71382;DHT22;60099;45.660;13.804;2022-07-29T12:29:21;31.00;39.90
71382;DHT22;60099;45.660;13.804;2022-07-29T12:31:52;31.00;40.40
71382;DHT22;60099;45.660;13.804;2022-07-29T12:34:20;31.00;40.30
71382;DHT22;60099;45.660;13.804;2022-07-29T12:36:47;31.00;40.60
71382;DHT22;60099;45.660;13.804;2022-07-29T12:39:18;31.00;38.30
71382;DHT22;60099;45.660;13.804;2022-07-29T12:41:44;31.00;39.50
71382;DHT22;60099;45.660;13.804;2022-07-29T12:44:10;31.00;40.30
71382;DHT22;60099;45.660;13.804;2022-07-29T12:46:36;30.90;38.60
71382;DHT22;60099;45.660;13.804;2022-07-29T12:49:03;31.00;40.60
71382;DHT22;60099;45.660;13.804;2022-07-29T12:51:32;31.00;40.80
71382;DHT22;60099;45.660;13.804;2022-07-29T12:54:13;31.10;41.30
71382;DHT22;60099;45.660;13.804;2022-07-29T12:56:39;31.00;40.70
71382;DHT22;60099;45.660;13.804;2022-07-29T12:59:20;31.00;40.90
71382;DHT22;60099;45.660;13.804;2022-07-29T13:01:46;31.00;42.70
71382;DHT22;60099;45.660;13.804;2022-07-29T13:04:32;31.00;43.10
71382;DHT22;60099;45.660;13.804;2022-07-29T13:07:03;31.00;41.60
71382;DHT22;60099;45.660;13.804;2022-07-29T13:09:42;31.00;42.00
71382;DHT22;60099;45.660;13.804;2022-07-29T13:12:13;31.00;42.30
71382;DHT22;60099;45.660;13.804;2022-07-29T13:14:42;31.00;41.30
71382;DHT22;60099;45.660;13.804;2022-07-29T13:17:22;30.90;38.70
71382;DHT22;60099;45.660;13.804;2022-07-29T13:19:50;30.90;39.70
71382;DHT22;60099;45.660;13.804;2022-07-29T13:22:19;30.80;39.70
71382;DHT22;60099;45.660;13.804;2022-07-29T13:24:59;30.80;39.70
71382;DHT22;60099;45.660;13.804;2022-07-29T13:27:29;30.90;40.90
71382;DHT22;60099;45.660;13.804;2022-07-29T13:29:56;30.90;40.50
71382;DHT22;60099;45.660;13.804;2022-07-29T13:32:24;31.00;39.20
71382;DHT22;60099;45.660;13.804;2022-07-29T13:34:51;31.00;40.60
71382;DHT22;60099;45.660;13.804;2022-07-29T13:37:17;31.10;39.70
71382;DHT22;60099;45.660;13.804;2022-07-29T13:39:43;31.10;38.60
71382;DHT22;60099;45.660;13.804;2022-07-29T13:42:08;31.20;40.10
71382;DHT22;60099;45.660;13.804;2022-07-29T13:44:35;31.30;40.00
71382;DHT22;60099;45.660;13.804;2022-07-29T13:47:01;31.40;38.80
71382;DHT22;60099;45.660;13.804;2022-07-29T13:49:27;31.40;38.80
71382;DHT22;60099;45.660;13.804;2022-07-29T13:51:53;31.30;37.30
71382;DHT22;60099;45.660;13.804;2022-07-29T13:54:19;31.30;37.30
71382;DHT22;60099;45.660;13.804;2022-07-29T13:56:45;31.20;37.10
71382;DHT22;60099;45.660;13.804;2022-07-29T13:59:11;31.30;37.40
71382;DHT22;60099;45.660;13.804;2022-07-29T14:01:37;31.30;34.80
71382;DHT22;60099;45.660;13.804;2022-07-29T14:04:06;31.30;36.90
71382;DHT22;60099;45.660;13.804;2022-07-29T14:06:32;31.30;36.70
71382;DHT22;60099;45.660;13.804;2022-07-29T14:08:58;31.40;36.80
71382;DHT22;60099;45.660;13.804;2022-07-29T14:11:24;31.40;35.80
71382;DHT22;60099;45.660;13.804;2022-07-29T14:13:50;31.40;36.40
71382;DHT22;60099;45.660;13.804;2022-07-29T14:16:16;31.20;37.30
71382;DHT22;60099;45.660;13.804;2022-07-29T14:18:42;31.20;37.90
71382;DHT22;60099;45.660;13.804;2022-07-29T14:21:08;31.20;38.10
71382;DHT22;60099;45.660;13.804;2022-07-29T14:23:34;31.30;36.40
71382;DHT22;60099;45.660;13.804;2022-07-29T14:26:00;31.30;35.80
71382;DHT22;60099;45.660;13.804;2022-07-29T14:28:25;31.40;37.10
71382;DHT22;60099;45.660;13.804;2022-07-29T14:30:51;31.40;36.50
71382;DHT22;60099;45.660;13.804;2022-07-29T14:33:17;31.40;35.90
71382;DHT22;60099;45.660;13.804;2022-07-29T14:35:43;31.40;36.30
71382;DHT22;60099;45.660;13.804;2022-07-29T14:38:09;31.40;35.60
71382;DHT22;60099;45.660;13.804;2022-07-29T14:40:35;31.40;34.40
71382;DHT22;60099;45.660;13.804;2022-07-29T14:43:02;31.40;34.00
71382;DHT22;60099;45.660;13.804;2022-07-29T14:45:28;31.40;35.00
71382;DHT22;60099;45.660;13.804;2022-07-29T14:47:54;31.50;34.90
71382;DHT22;60099;45.660;13.804;2022-07-29T14:50:20;31.60;34.40
71382;DHT22;60099;45.660;13.804;2022-07-29T14:52:46;31.80;34.10
71382;DHT22;60099;45.660;13.804;2022-07-29T14:55:12;31.80;33.50
71382;DHT22;60099;45.660;13.804;2022-07-29T14:57:38;31.80;34.20
71382;DHT22;60099;45.660;13.804;2022-07-29T15:00:05;31.80;34.50
71382;DHT22;60099;45.660;13.804;2022-07-29T15:02:34;31.90;33.20
71382;DHT22;60099;45.660;13.804;2022-07-29T15:05:00;31.80;32.80
71382;DHT22;60099;45.660;13.804;2022-07-29T15:07:26;31.80;33.50
71382;DHT22;60099;45.660;13.804;2022-07-29T15:09:52;31.80;33.50
71382;DHT22;60099;45.660;13.804;2022-07-29T15:12:18;31.80;33.30
71382;DHT22;60099;45.660;13.804;2022-07-29T15:14:44;31.80;33.50
71382;DHT22;60099;45.660;13.804;2022-07-29T15:17:10;31.80;33.50
71382;DHT22;60099;45.660;13.804;2022-07-29T15:19:35;31.70;32.10
71382;DHT22;60099;45.660;13.804;2022-07-29T15:22:01;31.70;32.20
71382;DHT22;60099;45.660;13.804;2022-07-29T15:24:27;31.60;32.50
71382;DHT22;60099;45.660;13.804;2022-07-29T15:26:53;31.50;32.70
71382;DHT22;60099;45.660;13.804;2022-07-29T15:29:19;31.40;33.00
71382;DHT22;60099;45.660;13.804;2022-07-29T15:31:45;31.40;32.90
71382;DHT22;60099;45.660;13.804;2022-07-29T15:34:10;31.40;33.00
71382;DHT22;60099;45.660;13.804;2022-07-29T15:36:36;31.40;33.20
71382;DHT22;60099;45.660;13.804;2022-07-29T15:39:02;31.40;32.50
71382;DHT22;60099;45.660;13.804;2022-07-29T15:41:28;31.40;32.40
71382;DHT22;60099;45.660;13.804;2022-07-29T15:43:53;31.40;32.60
71382;DHT22;60099;45.660;13.804;2022-07-29T15:46:19;31.30;32.50
71382;DHT22;60099;45.660;13.804;2022-07-29T15:49:05;31.30;32.40
71382;DHT22;60099;45.660;13.804;2022-07-29T15:51:31;31.20;32.60
71382;DHT22;60099;45.660;13.804;2022-07-29T15:53:57;31.20;32.60
71382;DHT22;60099;45.660;13.804;2022-07-29T15:56:23;31.20;32.40
71382;DHT22;60099;45.660;13.804;2022-07-29T15:58:49;31.10;32.70
71382;DHT22;60099;45.660;13.804;2022-07-29T16:01:15;31.10;32.00